createdAt,value
2018-07-30T00:04:33.602Z,19.30
2018-07-30T00:09:38.531Z,19.40
2018-07-30T00:14:43.254Z,19.40
2018-07-30T00:19:48.398Z,19.50
2018-07-30T00:24:53.039Z,19.60
2018-07-30T00:29:57.720Z,19.40
2018-07-30T00:40:09.191Z,19.30
2018-07-30T00:45:14.135Z,19.30
2018-07-30T00:50:18.995Z,19.20
2018-07-30T00:55:23.702Z,19.10
2018-07-30T01:00:28.465Z,19.00
2018-07-30T01:05:33.150Z,18.90
2018-07-30T01:10:37.922Z,18.80
2018-07-30T01:15:42.661Z,18.70
2018-07-30T01:20:47.600Z,18.60
2018-07-30T01:25:53.196Z,18.60
2018-07-30T01:30:57.988Z,18.50
2018-07-30T01:36:02.962Z,18.50
2018-07-30T01:46:12.315Z,18.50
2018-07-30T01:51:17.141Z,18.40
2018-07-30T01:56:21.970Z,18.50
2018-07-30T02:01:26.752Z,18.60
2018-07-30T02:06:31.551Z,18.40
2018-07-30T02:11:36.499Z,18.20
2018-07-30T02:16:41.820Z,18.10
2018-07-30T02:21:46.685Z,18.10
2018-07-30T02:26:51.386Z,18.10
2018-07-30T02:31:56.243Z,18.10
2018-07-30T02:37:01.230Z,18.10
2018-07-30T02:42:06.063Z,17.90
2018-07-30T02:47:10.991Z,17.90
2018-07-30T02:52:15.897Z,17.90
2018-07-30T02:57:20.747Z,17.90
2018-07-30T03:02:26.030Z,17.80
2018-07-30T03:07:30.593Z,17.70
2018-07-30T03:12:35.455Z,17.60
2018-07-30T03:17:40.279Z,17.50
2018-07-30T03:22:45.146Z,17.40
2018-07-30T03:27:49.851Z,17.20
2018-07-30T03:32:54.919Z,17.20
2018-07-30T03:37:59.852Z,17.20
2018-07-30T03:43:04.672Z,17.20
2018-07-30T03:48:09.281Z,17.10
2018-07-30T03:53:14.208Z,17.00
2018-07-30T03:58:19.348Z,17.00
2018-07-30T04:03:24.295Z,17.00
2018-07-30T04:08:29.185Z,16.90
2018-07-30T04:13:33.938Z,16.90
2018-07-30T04:18:38.873Z,16.90
2018-07-30T04:23:43.961Z,17.00
2018-07-30T04:28:48.558Z,17.00
2018-07-30T04:33:53.223Z,17.00
2018-07-30T04:44:02.181Z,17.30
2018-07-30T04:49:07.116Z,17.50
2018-07-30T04:54:11.826Z,17.80
2018-07-30T04:59:16.675Z,18.20
2018-07-30T05:04:21.494Z,18.40
2018-07-30T05:09:26.373Z,18.70
2018-07-30T05:14:31.454Z,18.90
2018-07-30T05:19:36.593Z,19.30
2018-07-30T05:24:41.458Z,19.60
2018-07-30T05:29:46.317Z,19.90
2018-07-30T05:34:51.147Z,20.10
2018-07-30T05:39:55.857Z,20.20
2018-07-30T05:45:00.491Z,20.30
2018-07-30T05:50:05.492Z,20.40
2018-07-30T05:55:10.394Z,20.60
2018-07-30T06:00:15.347Z,20.80
2018-07-30T06:05:20.309Z,21.00
2018-07-30T06:10:25.121Z,21.30
2018-07-30T06:15:29.924Z,21.50
2018-07-30T06:20:34.790Z,21.90
2018-07-30T06:25:39.514Z,22.20
2018-07-30T06:30:44.362Z,22.40
2018-07-30T06:35:50.109Z,22.40
2018-07-30T06:41:01.296Z,22.50
2018-07-30T06:46:06.026Z,22.80
2018-07-30T06:51:10.794Z,22.90
2018-07-30T06:56:15.890Z,23.30
2018-07-30T07:01:21.260Z,23.60
2018-07-30T07:06:26.944Z,23.90
2018-07-30T07:11:31.863Z,24.30
2018-07-30T07:16:36.880Z,24.30
2018-07-30T07:21:41.613Z,24.60
2018-07-30T07:26:46.712Z,24.60
2018-07-30T07:31:51.305Z,24.40
2018-07-30T07:36:56.059Z,24.30
2018-07-30T07:42:00.682Z,24.20
2018-07-30T07:47:05.435Z,24.00
2018-07-30T07:52:10.157Z,24.30
2018-07-30T07:57:14.844Z,24.60
2018-07-30T08:02:19.634Z,25.10
2018-07-30T08:07:24.812Z,25.20
2018-07-30T08:12:29.797Z,25.20
2018-07-30T08:17:34.765Z,25.70
2018-07-30T08:22:39.512Z,25.80
2018-07-30T08:27:44.178Z,25.90
2018-07-30T08:32:48.877Z,25.80
2018-07-30T08:37:53.629Z,26.30
2018-07-30T08:42:58.458Z,26.30
2018-07-30T08:48:03.350Z,26.40
2018-07-30T08:53:08.136Z,26.20
2018-07-30T08:58:13.004Z,26.50
2018-07-30T09:03:17.666Z,26.60
2018-07-30T09:08:22.409Z,26.70
2018-07-30T09:13:27.191Z,26.80
2018-07-30T09:18:32.117Z,26.70
2018-07-30T09:23:36.967Z,27.20
2018-07-30T09:28:41.832Z,27.80
2018-07-30T09:33:47.155Z,27.90
2018-07-30T09:38:51.992Z,28.00
2018-07-30T09:43:56.854Z,28.00
2018-07-30T09:49:01.674Z,28.30
2018-07-30T09:54:06.421Z,28.80
2018-07-30T09:59:11.242Z,28.70
2018-07-30T10:04:16.081Z,28.90
2018-07-30T10:09:20.769Z,28.60
2018-07-30T10:14:26.453Z,28.80
2018-07-30T10:19:31.192Z,29.30
2018-07-30T10:24:36.681Z,29.80
2018-07-30T10:29:41.427Z,29.60
2018-07-30T10:34:46.338Z,29.70
2018-07-30T10:39:51.307Z,30.00
2018-07-30T10:44:56.215Z,29.90
2018-07-30T10:50:01.155Z,30.10
2018-07-30T10:55:06.814Z,30.00
2018-07-30T11:00:12.058Z,30.20
2018-07-30T11:05:16.732Z,30.30
2018-07-30T11:10:21.553Z,30.60
2018-07-30T11:15:26.222Z,31.20
2018-07-30T11:20:31.107Z,31.10
2018-07-30T11:25:35.668Z,31.80
2018-07-30T11:30:40.697Z,31.90
2018-07-30T11:35:45.757Z,32.30
2018-07-30T11:40:50.342Z,32.10
2018-07-30T11:45:55.240Z,32.80
2018-07-30T11:51:00.073Z,34.40
2018-07-30T11:56:05.017Z,34.50
2018-07-30T12:01:10.419Z,35.20
2018-07-30T12:06:15.555Z,34.60
2018-07-30T12:11:20.442Z,35.30
2018-07-30T12:21:30.088Z,36.50
2018-07-30T12:26:34.945Z,37.30
2018-07-30T12:31:39.902Z,37.50
2018-07-30T12:36:44.654Z,37.60
2018-07-30T12:41:49.290Z,39.00
2018-07-30T12:46:54.109Z,39.50
2018-07-30T12:51:58.893Z,39.70
2018-07-30T12:57:03.628Z,40.40
2018-07-30T13:02:08.484Z,41.00
2018-07-30T13:07:13.217Z,41.30
2018-07-30T13:12:17.890Z,41.70
2018-07-30T13:17:22.708Z,41.90
2018-07-30T13:22:27.301Z,40.20
2018-07-30T13:27:32.059Z,39.60
2018-07-30T13:32:37.013Z,40.10
2018-07-30T13:37:41.699Z,40.00
2018-07-30T13:42:46.611Z,39.80
2018-07-30T13:47:51.516Z,39.70
2018-07-30T13:52:57.080Z,39.70
2018-07-30T13:58:02.590Z,39.90
2018-07-30T14:03:07.599Z,39.90
2018-07-30T14:08:12.415Z,39.70
2018-07-30T14:13:17.351Z,39.80
2018-07-30T14:18:22.084Z,40.00
2018-07-30T14:23:26.786Z,40.60
2018-07-30T14:28:31.822Z,40.30
2018-07-30T14:33:36.540Z,40.70
2018-07-30T14:38:41.232Z,39.80
2018-07-30T14:43:46.442Z,40.20
2018-07-30T14:48:52.181Z,40.50
2018-07-30T14:53:57.071Z,40.40
2018-07-30T14:59:02.633Z,40.80
2018-07-30T15:04:07.469Z,40.90
2018-07-30T15:09:13.980Z,39.70
2018-07-30T15:14:19.539Z,39.90
2018-07-30T15:19:24.273Z,40.40
2018-07-30T15:29:33.402Z,39.60
2018-07-30T15:34:38.034Z,41.70
2018-07-30T15:39:42.777Z,40.00
2018-07-30T15:44:47.598Z,39.90
2018-07-30T15:49:52.553Z,39.90
2018-07-30T15:54:58.571Z,39.90
2018-07-30T16:05:09.677Z,41.30
2018-07-30T16:10:14.373Z,41.00
2018-07-30T16:15:19.750Z,40.70
2018-07-30T16:20:24.551Z,40.40
2018-07-30T16:25:29.383Z,40.00
2018-07-30T16:30:34.179Z,39.90
2018-07-30T16:35:38.975Z,39.20
2018-07-30T16:40:44.079Z,39.20
2018-07-30T16:45:49.185Z,38.80
2018-07-30T16:50:54.086Z,39.20
2018-07-30T16:55:58.979Z,39.60
2018-07-30T17:01:03.834Z,39.90
2018-07-30T17:06:08.780Z,37.00
2018-07-30T17:11:13.612Z,34.80
2018-07-30T17:16:18.607Z,33.70
2018-07-30T17:21:23.571Z,33.30
2018-07-30T17:26:28.222Z,32.80
2018-07-30T17:31:33.031Z,32.40
2018-07-30T17:36:37.725Z,32.00
2018-07-30T17:41:42.478Z,31.70
2018-07-30T17:46:47.646Z,31.60
2018-07-30T17:51:52.582Z,31.60
2018-07-30T17:56:57.816Z,31.40
2018-07-30T18:02:03.327Z,31.20
2018-07-30T18:07:08.226Z,31.10
2018-07-30T18:12:12.924Z,31.00
2018-07-30T18:17:17.723Z,30.70
2018-07-30T18:22:22.631Z,30.40
2018-07-30T18:27:28.511Z,30.20
2018-07-30T18:32:34.200Z,29.80
2018-07-30T18:42:43.016Z,28.80
2018-07-30T18:47:48.727Z,28.30
2018-07-30T18:52:53.710Z,27.90
2018-07-30T18:57:59.166Z,27.70
2018-07-30T19:03:03.911Z,27.50
2018-07-30T19:08:08.645Z,27.20
2018-07-30T19:13:13.575Z,26.90
2018-07-30T19:18:19.067Z,26.60
2018-07-30T19:23:23.978Z,26.40
2018-07-30T19:28:28.944Z,26.30
2018-07-30T19:38:38.037Z,26.00
2018-07-30T19:43:43.317Z,25.70
2018-07-30T19:48:48.211Z,25.30
2018-07-30T19:53:53.045Z,25.20
2018-07-30T19:58:58.161Z,25.20
2018-07-30T20:04:02.979Z,25.10
2018-07-30T20:09:10.521Z,24.90
2018-07-30T20:14:16.578Z,24.90
2018-07-30T20:19:21.207Z,24.80
2018-07-30T20:24:26.844Z,24.80
2018-07-30T20:29:31.546Z,24.70
2018-07-30T20:34:36.213Z,24.50
2018-07-30T20:39:40.888Z,24.30
2018-07-30T20:44:45.965Z,24.20
2018-07-30T20:49:51.252Z,24.10
2018-07-30T20:54:56.002Z,24.00
2018-07-30T21:00:00.795Z,23.90
2018-07-30T21:05:05.686Z,23.70
2018-07-30T21:10:10.423Z,23.80
2018-07-30T21:15:15.260Z,23.70
2018-07-30T21:20:20.382Z,23.70
2018-07-30T21:25:25.217Z,23.60
2018-07-30T21:30:30.066Z,23.40
2018-07-30T21:35:34.900Z,23.10
2018-07-30T21:40:40.992Z,22.80
2018-07-30T21:45:45.902Z,22.60
2018-07-30T21:50:50.729Z,22.40
2018-07-30T21:55:55.617Z,22.20
2018-07-30T22:01:00.478Z,22.10
2018-07-30T22:06:05.310Z,22.10
2018-07-30T22:11:09.993Z,22.00
2018-07-30T22:16:14.732Z,22.00
2018-07-30T22:21:20.043Z,22.00
2018-07-30T22:26:24.901Z,22.00
2018-07-30T22:31:29.779Z,22.10
2018-07-30T22:36:34.486Z,22.40
2018-07-30T22:41:40.668Z,22.20
2018-07-30T22:46:45.485Z,21.90
2018-07-30T22:51:50.292Z,21.70
2018-07-30T22:56:54.943Z,21.60
2018-07-30T23:02:00.514Z,21.50
2018-07-30T23:07:05.351Z,21.20
2018-07-30T23:12:10.296Z,21.30
2018-07-30T23:17:15.212Z,21.40
2018-07-30T23:22:19.970Z,21.40
2018-07-30T23:27:25.432Z,21.30
2018-07-30T23:32:30.384Z,21.20
2018-07-30T23:37:35.214Z,21.00
2018-07-30T23:42:39.978Z,21.10
2018-07-30T23:47:45.813Z,21.00
2018-07-30T23:52:51.294Z,20.90
2018-07-30T23:57:56.096Z,20.80
